Time;durP1;ratioP1;P1;durP2;ratioP2;P2;SDS_P1;SDS_P2;PMS_P1;PMS_P2;Temp;Humidity;BMP_temperature;BMP_pressure;BME280_temperature;BME280_humidity;BME280_pressure;Samples;Min_cycle;Max_cycle;Signal;HPM_P1;HPM_P2
2021/06/05 00:01:18;;;;;;;;;;;;;;;15.57;52.16;98677.09;1768141;80;21995;-92
2021/06/05 00:03:53;;;;;;;;;;;;;;;15.62;52.25;98676.20;1772585;80;26092;-89
2021/06/05 00:06:21;;;;;;;;;;;;;;;15.63;52.37;98677.88;1774861;80;25100;-85
2021/06/05 00:08:50;;;;;;;;;;;;;;;15.67;52.45;98672.69;1768591;80;20201;-85
2021/06/05 00:11:18;;;;;;;;;;;;;;;15.76;52.51;98667.95;1772120;79;24766;-88
2021/06/05 00:13:46;;;;;;;;;;;;;;;15.85;52.54;98665.81;1772594;80;21983;-88
2021/06/05 00:16:16;;;;;;;;;;;;;;;15.96;52.57;98660.91;1766506;80;26564;-88
2021/06/05 00:18:43;;;;;;;;;;;;;;;16.06;52.58;98664.41;1777740;80;24478;-89
2021/06/05 00:21:10;;;;;;;;;;;;;;;16.12;52.60;98655.45;1775143;79;20272;-89
2021/06/05 00:23:36;;;;;;;;;;;;;;;16.15;52.57;98655.17;1768081;80;25085;-88
2021/06/05 00:26:02;;;;;;;;;;;;;;;16.16;52.57;98652.89;1772745;80;20295;-88
2021/06/05 00:28:29;;;;;;;;;;;;;;;16.15;52.50;98649.05;1784115;79;25970;-88
2021/06/05 00:30:59;;;;;;;;;;;;;;;16.11;52.41;98647.66;1786169;79;24444;-88
2021/06/05 00:33:25;;;;;;;;;;;;;;;16.10;52.31;98649.47;1768454;79;20189;-88
2021/06/05 00:35:51;;;;;;;;;;;;;;;16.07;52.24;98650.23;1754927;80;24534;-88
2021/06/05 00:38:18;;;;;;;;;;;;;;;16.08;52.16;98645.31;1773418;80;22085;-85
2021/06/05 00:40:52;;;;;;;;;;;;;;;16.08;52.06;98646.15;1767561;80;26616;-87
2021/06/05 00:43:19;;;;;;;;;;;;;;;16.01;52.16;98645.50;1770573;80;24608;-87
2021/06/05 00:45:46;;;;;;;;;;;;;;;16.03;52.14;98647.53;1759921;81;20332;-88
2021/06/05 00:48:12;;;;;;;;;;;;;;;16.01;52.20;98647.66;1754720;81;24739;-89
2021/06/05 00:50:39;;;;;;;;;;;;;;;15.99;52.25;98648.27;1763171;81;22038;-89
2021/06/05 00:53:07;;;;;;;;;;;;;;;16.01;52.27;98643.69;1758703;81;26581;-88
2021/06/05 00:55:34;;;;;;;;;;;;;;;16.01;52.29;98635.77;1710679;82;24460;-90
2021/06/05 00:58:00;;;;;;;;;;;;;;;16.09;52.31;98632.47;1706019;82;20253;-89
2021/06/05 01:00:40;;;;;;;;;;;;;;;16.12;52.29;98631.70;1775632;80;20272;-89
2021/06/05 01:03:07;;;;;;;;;;;;;;;16.12;52.24;98625.58;1768972;80;22006;-89
2021/06/05 01:05:35;;;;;;;;;;;;;;;16.12;52.14;98628.22;1768361;80;26148;-86
2021/06/05 01:08:06;;;;;;;;;;;;;;;16.12;52.11;98621.13;1773591;80;24455;-86
2021/06/05 01:10:33;;;;;;;;;;;;;;;16.14;52.06;98620.52;1751700;80;20420;-86
2021/06/05 01:13:12;;;;;;;;;;;;;;;16.16;52.02;98619.04;1767441;80;24685;-86
2021/06/05 01:15:40;;;;;;;;;;;;;;;16.15;51.97;98618.20;1765159;80;21956;-86
2021/06/05 01:18:20;;;;;;;;;;;;;;;16.16;51.91;98619.88;1769644;80;26067;-86
2021/06/05 01:21:11;;;;;;;;;;;;;;;16.17;51.89;98622.03;1772294;80;24543;-86
2021/06/05 01:23:57;;;;;;;;;;;;;;;16.21;51.91;98615.02;1767984;80;20214;-86
2021/06/05 01:26:25;;;;;;;;;;;;;;;16.25;51.94;98615.11;1748792;80;24479;-87
2021/06/05 01:29:08;;;;;;;;;;;;;;;16.25;51.89;98614.27;1770594;80;21957;-87
2021/06/05 01:31:42;;;;;;;;;;;;;;;16.27;51.90;98614.47;1763561;80;23385;-87
2021/06/05 01:34:08;;;;;;;;;;;;;;;16.26;51.97;98614.59;1769303;80;24619;-86
2021/06/05 01:36:36;;;;;;;;;;;;;;;16.23;52.12;98605.16;1772705;80;20150;-86
2021/06/05 01:39:04;;;;;;;;;;;;;;;16.31;52.24;98607.92;1779254;80;24473;-86
2021/06/05 01:41:31;;;;;;;;;;;;;;;16.35;52.28;98608.50;1701175;83;22821;-89
2021/06/05 01:44:07;;;;;;;;;;;;;;;16.34;52.31;98612.11;1697680;84;26070;-89
2021/06/05 01:46:34;;;;;;;;;;;;;;;16.30;52.33;98616.02;1699469;84;25452;-88
2021/06/05 01:49:00;;;;;;;;;;;;;;;16.37;52.43;98611.82;1695109;84;20478;-88
2021/06/05 01:51:28;;;;;;;;;;;;;;;16.40;52.45;98613.36;1699319;84;24542;-88
2021/06/05 01:54:03;;;;;;;;;;;;;;;16.35;52.46;98608.50;1732290;82;22048;-88
2021/06/05 01:56:38;;;;;;;;;;;;;;;16.29;52.60;98600.65;1735702;82;26182;-88
2021/06/05 01:59:05;;;;;;;;;;;;;;;16.25;52.85;98605.87;1727681;82;24473;-89
2021/06/05 02:01:31;;;;;;;;;;;;;;;16.17;53.00;98601.75;1734034;82;20200;-88
2021/06/05 02:03:57;;;;;;;;;;;;;;;16.10;53.13;98604.58;1735679;82;20223;-88
2021/06/05 02:06:24;;;;;;;;;;;;;;;15.96;53.28;98605.48;1730669;82;20372;-88
2021/06/05 02:08:51;;;;;;;;;;;;;;;15.88;53.50;98600.38;1730106;82;26032;-88
2021/06/05 02:11:19;;;;;;;;;;;;;;;15.82;53.66;98598.77;1728956;82;24439;-89
2021/06/05 02:13:49;;;;;;;;;;;;;;;15.77;53.89;98603.14;1730772;82;20248;-88
2021/06/05 02:16:20;;;;;;;;;;;;;;;15.84;54.11;98599.48;1732647;82;24523;-88
2021/06/05 02:18:48;;;;;;;;;;;;;;;15.98;54.37;98591.19;1731980;82;22245;-88
2021/06/05 02:21:16;;;;;;;;;;;;;;;16.07;54.52;98596.11;1778846;79;26134;-87
2021/06/05 02:23:47;;;;;;;;;;;;;;;16.08;54.65;98590.70;1776282;79;24504;-87
2021/06/05 02:26:14;;;;;;;;;;;;;;;16.04;54.66;98590.61;1778926;79;20249;-87
2021/06/05 02:28:41;;;;;;;;;;;;;;;15.96;54.78;98591.80;1777753;79;24941;-88
2021/06/05 02:31:09;;;;;;;;;;;;;;;15.85;54.87;98593.23;1777049;80;22327;-88
2021/06/05 02:33:36;;;;;;;;;;;;;;;15.78;54.93;98593.42;1779094;79;26747;-89
2021/06/05 02:36:06;;;;;;;;;;;;;;;15.81;55.06;98596.64;1773159;79;24536;-89
2021/06/05 02:38:36;;;;;;;;;;;;;;;15.82;55.21;98587.73;1769335;80;20162;-89
2021/06/05 02:41:02;;;;;;;;;;;;;;;15.81;55.38;98586.57;1770807;80;24435;-88
2021/06/05 02:43:30;;;;;;;;;;;;;;;15.80;55.49;98587.53;1770551;80;22137;-88
2021/06/05 02:45:58;;;;;;;;;;;;;;;15.82;55.60;98589.53;1772835;80;26012;-88
2021/06/05 02:48:24;;;;;;;;;;;;;;;15.84;55.70;98586.28;1770915;80;24460;-88
2021/06/05 02:50:51;;;;;;;;;;;;;;;15.85;55.74;98585.31;1771303;80;20450;-89
2021/06/05 02:53:23;;;;;;;;;;;;;;;15.80;55.75;98590.17;1768102;80;24546;-89
2021/06/05 02:55:49;;;;;;;;;;;;;;;15.93;55.82;98590.73;1774253;80;21969;-89
2021/06/05 02:58:16;;;;;;;;;;;;;;;16.10;55.92;98590.06;1769431;80;26845;-85
2021/06/05 03:00:44;;;;;;;;;;;;;;;16.06;55.90;98590.00;1771951;80;24457;-85
2021/06/05 03:03:12;;;;;;;;;;;;;;;16.01;55.85;98587.42;1775074;80;20253;-88
2021/06/05 03:05:38;;;;;;;;;;;;;;;15.97;55.90;98584.23;1771957;80;23947;-88
2021/06/05 03:08:06;;;;;;;;;;;;;;;16.05;56.02;98591.44;1776783;80;22090;-88
2021/06/05 03:10:42;;;;;;;;;;;;;;;16.04;56.12;98595.08;1768671;80;26117;-90
2021/06/05 03:13:19;;;;;;;;;;;;;;;16.05;56.14;98594.92;1773212;80;25251;-90
2021/06/05 03:15:44;;;;;;;;;;;;;;;16.19;56.24;98598.50;1770272;80;20194;-86
2021/06/05 03:18:11;;;;;;;;;;;;;;;16.28;56.31;98606.06;1769486;80;24584;-86
2021/06/05 03:20:45;;;;;;;;;;;;;;;16.30;56.32;98594.40;1774446;80;22965;-86
2021/06/05 03:23:12;;;;;;;;;;;;;;;16.30;56.38;98595.72;1783790;79;25872;-85
2021/06/05 03:25:38;;;;;;;;;;;;;;;16.25;56.42;98592.66;1766179;80;24249;-85
2021/06/05 03:28:05;;;;;;;;;;;;;;;16.20;56.44;98598.02;1763826;79;20256;-86
2021/06/05 03:30:31;;;;;;;;;;;;;;;16.06;56.48;98595.76;1773225;80;24596;-85
2021/06/05 03:32:57;;;;;;;;;;;;;;;15.94;56.55;98604.28;1765685;80;21961;-86
2021/06/05 03:35:23;;;;;;;;;;;;;;;15.78;56.62;98607.94;1768939;80;26062;-85
2021/06/05 03:37:51;;;;;;;;;;;;;;;15.70;56.75;98605.16;1769406;80;24500;-86
2021/06/05 03:40:20;;;;;;;;;;;;;;;15.62;56.90;98608.45;1756512;80;20147;-86
2021/06/05 03:42:51;;;;;;;;;;;;;;;15.66;57.14;98609.00;1769204;80;25406;-86
2021/06/05 03:45:14;;;;;;;;;;;;;;;15.77;57.32;98611.05;1768545;80;21938;-86
2021/06/05 03:47:45;;;;;;;;;;;;;;;15.76;57.49;98614.69;1775530;80;26067;-86
2021/06/05 03:50:13;;;;;;;;;;;;;;;15.73;57.61;98616.74;1776448;80;24615;-86
2021/06/05 03:52:44;;;;;;;;;;;;;;;15.62;57.78;98616.84;1771539;80;20241;-91
2021/06/05 03:55:16;;;;;;;;;;;;;;;15.62;57.95;98624.77;1770276;80;24753;-91
2021/06/05 03:57:42;;;;;;;;;;;;;;;15.58;58.19;98628.16;1767294;80;22050;-90
2021/06/05 04:00:10;;;;;;;;;;;;;;;15.46;58.42;98628.70;1770444;80;26696;-90
2021/06/05 04:02:36;;;;;;;;;;;;;;;15.47;58.60;98615.88;1770124;80;24437;-90
2021/06/05 04:05:03;;;;;;;;;;;;;;;15.64;58.83;98625.47;1774229;80;20218;-89
2021/06/05 04:07:29;;;;;;;;;;;;;;;15.71;58.98;98616.06;1772473;80;24512;-88
2021/06/05 04:10:08;;;;;;;;;;;;;;;15.71;59.09;98618.70;1776951;80;20261;-90
2021/06/05 04:12:34;;;;;;;;;;;;;;;15.68;59.24;98622.43;1766776;80;26045;-89
2021/06/05 04:15:00;;;;;;;;;;;;;;;15.72;59.36;98628.27;1775949;79;24379;-85
2021/06/05 04:17:26;;;;;;;;;;;;;;;15.72;59.44;98627.78;1770739;80;20312;-89
2021/06/05 04:19:52;;;;;;;;;;;;;;;15.69;59.49;98643.89;1767809;80;24478;-89
2021/06/05 04:22:18;;;;;;;;;;;;;;;15.51;59.72;98648.09;1768981;80;22081;-88
2021/06/05 04:24:45;;;;;;;;;;;;;;;15.45;59.85;98636.75;1771023;80;25970;-88
2021/06/05 04:27:11;;;;;;;;;;;;;;;15.38;59.99;98639.58;1778176;79;20240;-88
2021/06/05 04:29:37;;;;;;;;;;;;;;;15.31;60.13;98630.52;1769397;80;20155;-88
2021/06/05 04:32:08;;;;;;;;;;;;;;;15.26;60.26;98626.12;1759022;80;24404;-89
2021/06/05 04:34:32;;;;;;;;;;;;;;;15.24;60.38;98632.00;1764986;80;22103;-86
2021/06/05 04:37:02;;;;;;;;;;;;;;;15.23;60.55;98632.96;1772362;80;26805;-86
2021/06/05 04:39:29;;;;;;;;;;;;;;;15.24;60.70;98635.95;1772160;79;23926;-85
2021/06/05 04:41:56;;;;;;;;;;;;;;;15.28;60.82;98636.03;1766831;80;20516;-85
2021/06/05 04:44:23;;;;;;;;;;;;;;;15.30;60.96;98640.23;1772316;80;25583;-86
2021/06/05 04:46:50;;;;;;;;;;;;;;;15.29;61.10;98635.08;1766378;80;22027;-86
2021/06/05 04:49:22;;;;;;;;;;;;;;;15.30;61.27;98636.27;1767689;80;26592;-90
2021/06/05 04:51:48;;;;;;;;;;;;;;;15.33;61.40;98629.88;1765316;80;24449;-88
2021/06/05 04:54:18;;;;;;;;;;;;;;;15.37;61.53;98634.78;1768629;80;20280;-88
2021/06/05 04:56:45;;;;;;;;;;;;;;;15.38;61.62;98624.56;1763267;80;24524;-88
2021/06/05 04:59:12;;;;;;;;;;;;;;;15.44;61.72;98630.63;1766549;80;22050;-89
2021/06/05 05:01:38;;;;;;;;;;;;;;;15.46;61.81;98626.55;1768555;79;26205;-90
2021/06/05 05:04:05;;;;;;;;;;;;;;;15.52;61.88;98619.45;1773105;80;24519;-90
2021/06/05 05:06:31;;;;;;;;;;;;;;;15.57;61.95;98618.57;1768353;80;20241;-85
2021/06/05 05:08:58;;;;;;;;;;;;;;;15.60;62.02;98620.13;1770084;80;24544;-90
2021/06/05 05:11:25;;;;;;;;;;;;;;;15.65;62.10;98615.28;1771186;80;22005;-89
2021/06/05 05:13:51;;;;;;;;;;;;;;;15.72;62.15;98616.39;1766314;80;26054;-90
2021/06/05 05:16:18;;;;;;;;;;;;;;;15.77;62.20;98626.89;1777750;79;24401;-90
2021/06/05 05:18:45;;;;;;;;;;;;;;;15.81;62.22;98624.83;1764239;80;20250;-89
2021/06/05 05:21:11;;;;;;;;;;;;;;;15.85;62.27;98622.27;1770372;80;24594;-89
2021/06/05 05:23:37;;;;;;;;;;;;;;;15.87;62.31;98628.25;1769824;79;21956;-89
2021/06/05 05:26:04;;;;;;;;;;;;;;;15.88;62.31;98626.78;1767855;80;26643;-90
2021/06/05 05:28:31;;;;;;;;;;;;;;;15.94;62.37;98619.28;1770732;80;24393;-90
2021/06/05 05:30:58;;;;;;;;;;;;;;;15.95;62.38;98618.31;1767569;80;20444;-90
2021/06/05 05:33:34;;;;;;;;;;;;;;;16.02;62.36;98626.05;1769668;80;24672;-90
2021/06/05 05:35:58;;;;;;;;;;;;;;;16.04;62.44;98627.56;1769130;79;22815;-90
2021/06/05 05:38:25;;;;;;;;;;;;;;;16.07;62.48;98627.31;1768943;80;25977;-89
2021/06/05 05:40:51;;;;;;;;;;;;;;;16.10;62.50;98623.55;1771286;80;25530;-88
2021/06/05 05:43:18;;;;;;;;;;;;;;;16.17;62.55;98636.08;1771328;80;20221;-89
2021/06/05 05:45:44;;;;;;;;;;;;;;;16.23;62.53;98626.77;1772893;80;24504;-86
2021/06/05 05:48:11;;;;;;;;;;;;;;;16.29;62.51;98631.02;1766869;80;21971;-88
2021/06/05 05:50:38;;;;;;;;;;;;;;;16.37;62.49;98632.11;1770027;80;26182;-89
2021/06/05 05:53:21;;;;;;;;;;;;;;;16.47;62.47;98624.56;1762291;80;24498;-91
2021/06/05 05:55:54;;;;;;;;;;;;;;;16.58;62.45;98625.72;1767824;80;20455;-89
2021/06/05 05:58:21;;;;;;;;;;;;;;;16.75;62.41;98619.44;1773944;80;24595;-91
2021/06/05 06:00:56;;;;;;;;;;;;;;;16.91;62.31;98619.17;1770060;80;21545;-89
2021/06/05 06:03:22;;;;;;;;;;;;;;;17.06;62.23;98616.92;1751568;81;26027;-90
2021/06/05 06:05:53;;;;;;;;;;;;;;;17.19;62.13;98614.78;1767219;80;20261;-91
2021/06/05 06:08:20;;;;;;;;;;;;;;;17.34;62.00;98616.50;1765868;79;20273;-89
2021/06/05 06:10:46;;;;;;;;;;;;;;;17.49;61.89;98617.67;1771874;80;24530;-89
2021/06/05 06:13:12;;;;;;;;;;;;;;;17.65;61.82;98625.85;1768809;80;22036;-89
2021/06/05 06:15:39;;;;;;;;;;;;;;;17.78;61.76;98623.67;1769187;80;25927;-89
2021/06/05 06:18:08;;;;;;;;;;;;;;;17.90;61.63;98625.64;1772536;80;24419;-88
2021/06/05 06:20:35;;;;;;;;;;;;;;;18.02;61.47;98628.91;1766506;80;20201;-86
2021/06/05 06:23:01;;;;;;;;;;;;;;;18.16;61.33;98625.77;1769551;80;24651;-86
2021/06/05 06:25:30;;;;;;;;;;;;;;;18.28;61.19;98629.35;1769383;80;20880;-86
2021/06/05 06:27:56;;;;;;;;;;;;;;;18.38;61.01;98626.13;1769107;80;25994;-86
2021/06/05 06:30:27;;;;;;;;;;;;;;;18.45;60.86;98629.02;1770483;80;24483;-89
2021/06/05 06:32:53;;;;;;;;;;;;;;;18.50;60.65;98632.05;1768670;80;20379;-88
2021/06/05 06:35:23;;;;;;;;;;;;;;;18.53;60.46;98637.06;1764498;80;24539;-86
2021/06/05 06:37:50;;;;;;;;;;;;;;;18.56;60.30;98638.09;1770192;80;22051;-88
2021/06/05 06:40:18;;;;;;;;;;;;;;;18.54;60.19;98634.78;1749573;80;25932;-88
2021/06/05 06:42:57;;;;;;;;;;;;;;;18.52;60.00;98632.73;1768819;80;24629;-91
2021/06/05 06:45:23;;;;;;;;;;;;;;;18.53;59.85;98636.22;1776313;80;20393;-89
2021/06/05 06:47:49;;;;;;;;;;;;;;;18.53;59.74;98629.59;1768584;80;24601;-92
2021/06/05 06:50:16;;;;;;;;;;;;;;;18.52;59.65;98631.41;1772442;80;20358;-86
2021/06/05 06:52:43;;;;;;;;;;;;;;;18.50;59.60;98629.87;1774049;79;25412;-88
2021/06/05 06:55:10;;;;;;;;;;;;;;;18.46;59.57;98635.98;1766991;80;25284;-88
2021/06/05 06:57:36;;;;;;;;;;;;;;;18.49;59.59;98632.22;1761518;80;20496;-89
2021/06/05 07:00:08;;;;;;;;;;;;;;;18.51;59.66;98628.41;1766416;80;24620;-87
2021/06/05 07:02:34;;;;;;;;;;;;;;;18.48;59.64;98630.55;1740289;80;22167;-86
2021/06/05 07:05:00;;;;;;;;;;;;;;;18.35;59.62;98629.09;1769803;80;26784;-89
2021/06/05 07:07:28;;;;;;;;;;;;;;;18.24;59.67;98630.64;1768883;80;20324;-86
2021/06/05 07:09:55;;;;;;;;;;;;;;;18.17;59.78;98631.38;1708303;82;20203;-86
2021/06/05 07:12:21;;;;;;;;;;;;;;;18.06;59.89;98621.00;1704839;83;24713;-86
2021/06/05 07:14:50;;;;;;;;;;;;;;;18.03;59.99;98620.83;1715624;83;22032;-86
2021/06/05 07:17:18;;;;;;;;;;;;;;;18.06;60.16;98628.95;1676398;84;21408;-86
2021/06/05 07:19:45;;;;;;;;;;;;;;;18.05;60.37;98620.69;1699142;84;24531;-86
2021/06/05 07:22:17;;;;;;;;;;;;;;;18.06;60.47;98629.78;1674272;84;20213;-85
2021/06/05 07:24:43;;;;;;;;;;;;;;;18.09;60.61;98616.75;1692120;84;24803;-86
2021/06/05 07:27:09;;;;;;;;;;;;;;;18.14;60.73;98609.19;1696968;84;20241;-87
2021/06/05 07:29:35;;;;;;;;;;;;;;;18.25;60.83;98599.69;1729567;82;26078;-90
2021/06/05 07:32:06;;;;;;;;;;;;;;;18.47;61.00;98612.48;1732159;82;22204;-88
2021/06/05 07:34:35;;;;;;;;;;;;;;;18.64;61.12;98607.70;1731214;82;20549;-89
2021/06/05 07:37:03;;;;;;;;;;;;;;;18.76;61.17;98604.31;1730953;82;24634;-88
2021/06/05 07:39:30;;;;;;;;;;;;;;;18.85;61.16;98595.91;1733795;81;21841;-86
2021/06/05 07:42:00;;;;;;;;;;;;;;;18.95;61.15;98585.53;1730933;82;26065;-88
2021/06/05 07:44:27;;;;;;;;;;;;;;;19.07;61.15;98583.45;1734285;82;24525;-88
2021/06/05 07:46:56;;;;;;;;;;;;;;;19.17;61.13;98572.23;1730599;82;20204;-90
2021/06/05 07:49:24;;;;;;;;;;;;;;;19.28;61.13;98557.36;1729135;82;24615;-89
2021/06/05 07:51:50;;;;;;;;;;;;;;;19.48;61.21;98561.95;1728072;82;22018;-90
2021/06/05 07:54:16;;;;;;;;;;;;;;;19.68;61.24;98562.53;1733585;82;26119;-91
2021/06/05 08:00:06;;;;;;;;;;;;;;;20.03;60.94;98547.16;1728523;82;20183;-91
2021/06/05 08:02:33;;;;;;;;;;;;;;;20.34;60.70;98543.91;1727009;82;24563;-90
2021/06/05 08:04:59;;;;;;;;;;;;;;;20.62;60.49;98535.09;1727279;82;21893;-89
2021/06/05 08:07:25;;;;;;;;;;;;;;;20.88;60.18;98532.56;1727080;82;26240;-89
2021/06/05 08:09:52;;;;;;;;;;;;;;;21.13;59.82;98536.47;1733130;82;24435;-89
2021/06/05 08:12:18;;;;;;;;;;;;;;;21.29;59.36;98531.95;1730447;82;20611;-89
2021/06/05 08:14:44;;;;;;;;;;;;;;;21.40;59.00;98530.73;1734365;80;24553;-89
2021/06/05 08:17:17;;;;;;;;;;;;;;;21.46;58.60;98529.22;1729891;82;22589;-85
2021/06/05 08:19:43;;;;;;;;;;;;;;;21.49;58.25;98520.37;1728310;82;26066;-86
2021/06/05 08:22:09;;;;;;;;;;;;;;;21.55;57.96;98516.17;1728728;82;24462;-86
2021/06/05 08:24:36;;;;;;;;;;;;;;;21.67;57.75;98518.78;1720071;82;20225;-86
2021/06/05 08:27:02;;;;;;;;;;;;;;;21.84;57.58;98516.36;1720541;82;24597;-85
2021/06/05 08:29:27;;;;;;;;;;;;;;;22.03;57.49;98511.94;1715547;82;20889;-86
2021/06/05 08:31:56;;;;;;;;;;;;;;;22.17;57.25;98513.48;1720238;82;26430;-86
2021/06/05 08:34:23;;;;;;;;;;;;;;;22.28;56.94;98509.07;1719507;82;20297;-85
2021/06/05 08:36:49;;;;;;;;;;;;;;;22.34;56.61;98505.69;1723400;82;20357;-85
2021/06/05 08:39:15;;;;;;;;;;;;;;;22.40;56.30;98504.97;1725385;82;24558;-85
2021/06/05 08:41:50;;;;;;;;;;;;;;;22.47;56.02;98496.58;1719724;82;21974;-86
2021/06/05 08:44:18;;;;;;;;;;;;;;;22.61;55.88;98499.77;1723504;82;26851;-90
2021/06/05 08:46:52;;;;;;;;;;;;;;;22.71;55.52;98504.37;1721181;82;24456;-91
2021/06/05 08:49:23;;;;;;;;;;;;;;;22.78;55.26;98501.30;1711680;82;20449;-89
2021/06/05 08:51:55;;;;;;;;;;;;;;;22.88;54.96;98501.86;1685211;83;25347;-86
2021/06/05 08:54:32;;;;;;;;;;;;;;;22.95;54.75;98500.63;1709370;82;21975;-89
2021/06/05 08:57:06;;;;;;;;;;;;;;;23.05;54.53;98495.00;1771685;80;25983;-89
2021/06/05 08:59:38;;;;;;;;;;;;;;;23.09;54.21;98493.61;1775571;80;25442;-89
2021/06/05 09:02:05;;;;;;;;;;;;;;;23.12;53.84;98489.25;1773770;80;20457;-87
2021/06/05 09:04:32;;;;;;;;;;;;;;;23.16;53.52;98479.85;1768386;80;24538;-89
2021/06/05 09:07:23;;;;;;;;;;;;;;;23.25;53.44;98481.39;1773937;80;20193;-89
2021/06/05 09:09:51;;;;;;;;;;;;;;;23.30;53.24;98474.98;1777161;80;26056;-88
2021/06/05 09:12:19;;;;;;;;;;;;;;;23.41;53.06;98469.67;1770539;80;24594;-89
2021/06/05 09:14:46;;;;;;;;;;;;;;;23.47;52.88;98472.96;1768199;80;20169;-88
2021/06/05 09:17:19;;;;;;;;;;;;;;;23.58;52.80;98469.80;1771528;79;24516;-88
2021/06/05 09:19:59;;;;;;;;;;;;;;;23.63;52.66;98463.38;1774305;80;22248;-89
2021/06/05 09:22:28;;;;;;;;;;;;;;;23.69;52.46;98460.78;1770022;79;26851;-89
2021/06/05 09:24:58;;;;;;;;;;;;;;;23.71;52.13;98463.28;1769421;80;24459;-89
2021/06/05 09:27:25;;;;;;;;;;;;;;;23.76;52.03;98455.02;1773324;80;20253;-89
2021/06/05 09:29:53;;;;;;;;;;;;;;;23.76;51.85;98452.34;1769823;80;25382;-89
2021/06/05 09:32:34;;;;;;;;;;;;;;;23.82;51.67;98460.61;1777460;80;21961;-89
2021/06/05 09:35:10;;;;;;;;;;;;;;;23.74;51.34;98448.19;1772350;80;26034;-88
2021/06/05 09:37:45;;;;;;;;;;;;;;;23.81;51.25;98450.93;1765510;80;26219;-88
2021/06/05 09:40:26;;;;;;;;;;;;;;;23.85;51.05;98453.53;1769542;80;20275;-87
2021/06/05 09:43:01;;;;;;;;;;;;;;;23.96;50.97;98453.02;1771294;79;24682;-88
2021/06/05 09:45:36;;;;;;;;;;;;;;;24.06;50.74;98446.33;1768017;80;22828;-89
2021/06/05 09:48:19;;;;;;;;;;;;;;;24.04;50.32;98447.05;1772956;80;26063;-89
2021/06/05 09:50:47;;;;;;;;;;;;;;;24.10;50.19;98444.95;1769506;80;24476;-88
2021/06/05 09:53:15;;;;;;;;;;;;;;;24.19;50.03;98444.32;1771089;80;20725;-88
2021/06/05 09:55:44;;;;;;;;;;;;;;;24.30;50.06;98437.62;1771516;80;24588;-85
2021/06/05 09:58:11;;;;;;;;;;;;;;;24.29;49.84;98439.46;1774436;80;22064;-85
2021/06/05 10:00:41;;;;;;;;;;;;;;;24.27;49.61;98441.52;1765309;80;26142;-85
2021/06/05 10:03:17;;;;;;;;;;;;;;;24.34;49.58;98442.89;1769830;80;24675;-85
2021/06/05 10:05:44;;;;;;;;;;;;;;;24.46;49.60;98440.83;1770669;80;20159;-89
2021/06/05 10:08:18;;;;;;;;;;;;;;;24.57;49.47;98444.30;1771548;80;24581;-89
2021/06/05 10:10:46;;;;;;;;;;;;;;;24.65;49.26;98438.49;1768796;80;22089;-88
2021/06/05 10:13:14;;;;;;;;;;;;;;;24.76;49.04;98432.08;1772622;80;26744;-89
2021/06/05 10:15:44;;;;;;;;;;;;;;;24.83;48.84;98420.05;1693867;82;24643;-89
2021/06/05 10:18:15;;;;;;;;;;;;;;;24.85;48.69;98414.83;1722851;81;20243;-89
2021/06/05 10:20:54;;;;;;;;;;;;;;;24.92;48.62;98408.20;1727974;82;24726;-89
2021/06/05 10:23:27;;;;;;;;;;;;;;;25.01;48.56;98411.02;1736326;82;22030;-88
2021/06/05 10:26:01;;;;;;;;;;;;;;;25.03;48.32;98403.62;1767385;79;25888;-89
2021/06/05 10:28:29;;;;;;;;;;;;;;;25.08;48.14;98406.52;1772974;80;24485;-88
2021/06/05 10:31:02;;;;;;;;;;;;;;;25.14;48.12;98408.41;1778249;80;20217;-88
2021/06/05 10:33:37;;;;;;;;;;;;;;;25.17;47.93;98410.67;1772035;80;24989;-89
2021/06/05 10:36:05;;;;;;;;;;;;;;;25.16;47.68;98404.16;1768761;80;22063;-85
2021/06/05 10:38:42;;;;;;;;;;;;;;;25.26;47.70;98401.42;1771158;80;26057;-85
2021/06/05 10:41:09;;;;;;;;;;;;;;;25.48;47.78;98405.29;1786990;79;24105;-85
2021/06/05 10:43:40;;;;;;;;;;;;;;;25.60;47.72;98401.85;1770686;80;20232;-88
2021/06/05 10:46:27;;;;;;;;;;;;;;;25.71;47.63;98397.23;1774139;80;24531;-88
2021/06/05 10:48:55;;;;;;;;;;;;;;;25.73;47.43;98399.20;1702794;83;21990;-88
2021/06/05 10:51:28;;;;;;;;;;;;;;;25.69;47.13;98390.44;1695803;82;26758;-88
2021/06/05 10:54:00;;;;;;;;;;;;;;;25.63;46.87;98391.25;1717045;79;24559;-88
2021/06/05 10:56:41;;;;;;;;;;;;;;;25.45;46.42;98389.12;1764165;80;20315;-88
2021/06/05 10:59:08;;;;;;;;;;;;;;;25.43;46.37;98386.63;1773504;79;24491;-89
2021/06/05 11:01:45;;;;;;;;;;;;;;;25.55;46.37;98382.84;1773492;79;22001;-89
2021/06/05 11:04:30;;;;;;;;;;;;;;;25.66;46.34;98373.41;1767052;80;25958;-89
2021/06/05 11:07:03;;;;;;;;;;;;;;;25.88;46.43;98377.55;1773291;80;24413;-89
2021/06/05 11:09:32;;;;;;;;;;;;;;;26.02;46.25;98375.17;1771711;80;20415;-89
2021/06/05 11:12:03;;;;;;;;;;;;;;;26.19;46.19;98372.38;1767168;80;25493;-89
2021/06/05 11:14:37;;;;;;;;;;;;;;;26.31;45.98;98375.80;1765590;80;22164;-90
2021/06/05 11:17:09;;;;;;;;;;;;;;;26.42;45.81;98377.85;1767655;80;26812;-90
2021/06/05 11:19:44;;;;;;;;;;;;;;;26.52;45.65;98374.21;1771387;80;25289;-89
2021/06/05 11:22:11;;;;;;;;;;;;;;;26.62;45.53;98374.62;1764137;80;20311;-89
2021/06/05 11:24:39;;;;;;;;;;;;;;;26.74;45.35;98375.59;1756723;81;24636;-90
2021/06/05 11:27:06;;;;;;;;;;;;;;;26.74;45.13;98365.38;1725746;82;22904;-90
2021/06/05 11:29:35;;;;;;;;;;;;;;;26.79;45.09;98367.73;1752054;81;26865;-89
2021/06/05 11:32:06;;;;;;;;;;;;;;;26.88;45.10;98369.20;1758413;81;24541;-90
2021/06/05 11:34:36;;;;;;;;;;;;;;;26.82;44.85;98368.67;1757785;81;20360;-90
2021/06/05 11:37:09;;;;;;;;;;;;;;;26.77;44.60;98365.80;1755772;81;24619;-86
2021/06/05 11:39:37;;;;;;;;;;;;;;;26.79;44.53;98366.39;1761893;81;22100;-86
2021/06/05 11:42:05;;;;;;;;;;;;;;;26.88;44.43;98362.48;1758255;81;26257;-86
2021/06/05 11:44:37;;;;;;;;;;;;;;;26.94;44.20;98362.98;1756347;81;25417;-86
2021/06/05 11:47:11;;;;;;;;;;;;;;;26.93;44.04;98364.01;1758948;81;20177;-86
2021/06/05 11:49:56;;;;;;;;;;;;;;;26.92;43.85;98367.73;1754804;81;24692;-86
2021/06/05 11:52:32;;;;;;;;;;;;;;;26.70;43.70;98369.53;1758340;79;21983;-85
2021/06/05 11:55:09;;;;;;;;;;;;;;;26.07;43.76;98374.06;1751815;81;25983;-85
2021/06/05 11:57:37;;;;;;;;;;;;;;;25.51;44.33;98366.88;1754927;80;25512;-85
2021/06/05 12:00:11;;;;;;;;;;;;;;;24.87;45.28;98370.46;1756136;81;20339;-86
2021/06/05 12:02:39;;;;;;;;;;;;;;;24.29;46.06;98375.27;1754696;81;25204;-86
2021/06/05 12:05:16;;;;;;;;;;;;;;;23.77;47.04;98387.69;1755969;81;22070;-88
2021/06/05 12:07:43;;;;;;;;;;;;;;;23.37;47.76;98403.79;1758133;81;26094;-88
2021/06/05 12:10:13;;;;;;;;;;;;;;;23.09;48.59;98386.31;1754736;79;24031;-86
2021/06/05 12:12:40;;;;;;;;;;;;;;;22.94;49.42;98354.33;1756776;81;20301;-87
2021/06/05 12:15:10;;;;;;;;;;;;;;;22.87;50.22;98337.39;1757392;79;24559;-86
2021/06/05 12:17:41;;;;;;;;;;;;;;;22.84;50.89;98338.28;1758755;81;21994;-86
2021/06/05 12:20:21;;;;;;;;;;;;;;;22.84;51.45;98336.95;1738622;81;26553;-86
2021/06/05 12:22:49;;;;;;;;;;;;;;;22.88;51.90;98342.23;1756433;81;24558;-86
2021/06/05 12:25:29;;;;;;;;;;;;;;;22.93;52.45;98341.98;1704746;83;20663;-89
2021/06/05 12:28:06;;;;;;;;;;;;;;;22.93;52.88;98340.66;1691833;84;25356;-89
2021/06/05 12:30:33;;;;;;;;;;;;;;;22.97;53.50;98337.09;1690407;84;21995;-90
2021/06/05 12:33:00;;;;;;;;;;;;;;;23.04;54.08;98342.51;1699032;84;26050;-90
2021/06/05 12:35:31;;;;;;;;;;;;;;;23.18;54.46;98338.98;1765569;81;24461;-90
2021/06/05 12:37:58;;;;;;;;;;;;;;;23.39;54.80;98340.84;1757090;81;20169;-90
2021/06/05 12:40:37;;;;;;;;;;;;;;;23.55;55.12;98335.27;1751377;81;24379;-89
2021/06/05 12:43:05;;;;;;;;;;;;;;;23.69;55.35;98337.03;1763590;80;22903;-90
2021/06/05 12:45:33;;;;;;;;;;;;;;;23.68;55.62;98338.04;1756209;81;27475;-91
2021/06/05 12:48:00;;;;;;;;;;;;;;;23.67;55.79;98343.09;1761008;81;25162;-90
2021/06/05 12:50:57;;;;;;;;;;;;;;;23.65;56.00;98342.45;1726643;82;20276;-91
2021/06/05 12:53:25;;;;;;;;;;;;;;;23.57;56.13;98336.72;1749766;81;25407;-87
2021/06/05 12:55:53;;;;;;;;;;;;;;;23.57;56.09;98331.37;1760877;81;22003;-88
2021/06/05 12:58:36;;;;;;;;;;;;;;;23.65;56.30;98335.77;1755509;81;26055;-88
2021/06/05 13:01:03;;;;;;;;;;;;;;;23.70;56.39;98340.86;1758125;81;24523;-87
2021/06/05 13:03:31;;;;;;;;;;;;;;;23.76;56.23;98335.25;1755309;81;20500;-88